Time;durP1;ratioP1;P1;durP2;ratioP2;P2;SDS_P1;SDS_P2;PMS_P1;PMS_P2;Temp;Humidity;BMP_temperature;BMP_pressure;BME280_temperature;BME280_humidity;BME280_pressure;Samples;Min_cycle;Max_cycle;Signal;HPM_P1;HPM_P2
2023/10/17 00:01:13;;;;;;;1.20;1.20;;;;;;;;;;6155690;23;20181;-87
2023/10/17 00:03:45;;;;;;;0.70;0.70;;;;;;;;;;6155419;23;20178;-87
2023/10/17 00:06:16;;;;;;;0.60;0.60;;;;;;;;;;6155541;23;20200;-87
2023/10/17 00:08:50;;;;;;;0.60;0.60;;;;;;;;;;6156285;23;20188;-88
2023/10/17 00:11:29;;;;;;;0.70;0.70;;;;;;;;;;6156380;23;20185;-88
2023/10/17 00:14:07;;;;;;;0.70;0.70;;;;;;;;;;6155488;23;20184;-88
2023/10/17 00:16:37;;;;;;;0.70;0.70;;;;;;;;;;6155643;23;20189;-87
2023/10/17 00:19:09;;;;;;;0.60;0.60;;;;;;;;;;6155942;23;20189;-87
2023/10/17 00:21:39;;;;;;;0.70;0.70;;;;;;;;;;6155898;23;20183;-88
2023/10/17 00:24:09;;;;;;;0.80;0.80;;;;;;;;;;6154783;23;20172;-87
2023/10/17 00:26:39;;;;;;;0.90;0.90;;;;;;;;;;6155580;23;20166;-87
2023/10/17 00:29:08;;;;;;;0.70;0.70;;;;;;;;;;6156231;23;20208;-88
2023/10/17 00:31:37;;;;;;;0.77;0.77;;;;;;;;;;6155682;23;20232;-88
2023/10/17 00:34:15;;;;;;;1.37;1.37;;;;;;;;;;6154669;23;20180;-87
2023/10/17 00:36:49;;;;;;;0.70;0.70;;;;;;;;;;6155573;23;20202;-87
2023/10/17 00:39:29;;;;;;;0.70;0.70;;;;;;;;;;6155330;23;20211;-87
2023/10/17 00:42:17;;;;;;;0.70;0.70;;;;;;;;;;6155469;23;20193;-87
2023/10/17 00:44:47;;;;;;;0.67;0.67;;;;;;;;;;6154569;23;20174;-88
2023/10/17 00:47:18;;;;;;;0.70;0.70;;;;;;;;;;6155749;23;20174;-88
2023/10/17 00:49:49;;;;;;;0.83;0.83;;;;;;;;;;6155391;23;20181;-87
2023/10/17 00:52:24;;;;;;;0.70;0.70;;;;;;;;;;6155351;23;20182;-88
2023/10/17 00:54:54;;;;;;;0.70;0.70;;;;;;;;;;6155202;23;20172;-87
2023/10/17 00:57:26;;;;;;;0.70;0.70;;;;;;;;;;6155276;23;20174;-87
2023/10/17 00:59:55;;;;;;;0.70;0.70;;;;;;;;;;6154929;23;20182;-87
2023/10/17 01:02:29;;;;;;;0.70;0.70;;;;;;;;;;6154971;23;20204;-87
2023/10/17 01:05:00;;;;;;;0.60;0.60;;;;;;;;;;6155165;23;20177;-87
2023/10/17 01:07:30;;;;;;;0.60;0.60;;;;;;;;;;6155045;23;20204;-86
2023/10/17 01:10:10;;;;;;;0.60;0.60;;;;;;;;;;6155423;23;20174;-87
2023/10/17 01:12:49;;;;;;;0.60;0.60;;;;;;;;;;6154701;23;20170;-87
2023/10/17 01:15:21;;;;;;;0.70;0.70;;;;;;;;;;6154924;23;20179;-87
2023/10/17 01:17:53;;;;;;;0.60;0.60;;;;;;;;;;6155217;23;20178;-87
2023/10/17 01:20:24;;;;;;;0.60;0.60;;;;;;;;;;6154654;23;20192;-87
2023/10/17 01:22:55;;;;;;;1.40;1.37;;;;;;;;;;6154516;23;20170;-87
2023/10/17 01:25:29;;;;;;;0.60;0.60;;;;;;;;;;6155074;23;20274;-87
2023/10/17 01:27:58;;;;;;;0.63;0.63;;;;;;;;;;6155550;23;20186;-87
2023/10/17 01:30:29;;;;;;;0.70;0.70;;;;;;;;;;6154148;23;20175;-87
2023/10/17 01:32:58;;;;;;;0.60;0.60;;;;;;;;;;6154856;23;20250;-87
2023/10/17 01:35:27;;;;;;;0.70;0.70;;;;;;;;;;6155011;23;20177;-88
2023/10/17 01:37:56;;;;;;;0.70;0.70;;;;;;;;;;6155029;23;20188;-87
2023/10/17 01:40:27;;;;;;;0.80;0.80;;;;;;;;;;6153705;23;20229;-87
2023/10/17 01:42:57;;;;;;;0.70;0.70;;;;;;;;;;6154350;23;20188;-87
2023/10/17 01:45:29;;;;;;;0.60;0.60;;;;;;;;;;6154829;23;20174;-87
2023/10/17 01:47:58;;;;;;;1.33;1.23;;;;;;;;;;6154906;23;20170;-87
2023/10/17 01:50:28;;;;;;;0.97;0.97;;;;;;;;;;6154530;23;20269;-87
2023/10/17 01:52:59;;;;;;;0.70;0.70;;;;;;;;;;6155179;23;20259;-87
2023/10/17 01:55:30;;;;;;;0.70;0.70;;;;;;;;;;6154541;23;20174;-88
2023/10/17 01:57:59;;;;;;;0.60;0.60;;;;;;;;;;6155474;23;20494;-88
2023/10/17 02:00:37;;;;;;;0.70;0.70;;;;;;;;;;6154417;23;20290;-87
2023/10/17 02:03:07;;;;;;;0.60;0.60;;;;;;;;;;6155079;23;20185;-87
2023/10/17 02:05:36;;;;;;;0.70;0.70;;;;;;;;;;6155395;23;20305;-87
2023/10/17 02:08:06;;;;;;;0.77;0.77;;;;;;;;;;6154925;23;20182;-87
2023/10/17 02:10:36;;;;;;;0.70;0.70;;;;;;;;;;6154362;23;20183;-87
2023/10/17 02:13:06;;;;;;;0.60;0.60;;;;;;;;;;6155119;23;20229;-87
2023/10/17 02:15:37;;;;;;;0.90;0.90;;;;;;;;;;6153803;23;20170;-87
2023/10/17 02:18:14;;;;;;;0.80;0.80;;;;;;;;;;6154293;23;20217;-87
2023/10/17 02:20:51;;;;;;;0.70;0.70;;;;;;;;;;6154119;23;20182;-87
2023/10/17 02:23:25;;;;;;;0.60;0.60;;;;;;;;;;6154826;23;20169;-87
2023/10/17 02:26:00;;;;;;;0.90;0.90;;;;;;;;;;6155210;23;20182;-87
2023/10/17 02:28:31;;;;;;;0.70;0.70;;;;;;;;;;6154612;23;20177;-87
2023/10/17 02:31:06;;;;;;;0.83;0.83;;;;;;;;;;6154361;23;20184;-87
2023/10/17 02:33:35;;;;;;;0.90;0.90;;;;;;;;;;6154410;23;20182;-87
2023/10/17 02:36:08;;;;;;;0.77;0.77;;;;;;;;;;6155032;23;20226;-87
2023/10/17 02:38:37;;;;;;;0.60;0.60;;;;;;;;;;6154345;23;20214;-87
2023/10/17 02:41:08;;;;;;;0.60;0.60;;;;;;;;;;6155031;23;20182;-87
2023/10/17 02:43:40;;;;;;;0.80;0.80;;;;;;;;;;6154331;23;20190;-87
2023/10/17 02:46:08;;;;;;;0.70;0.70;;;;;;;;;;6154313;23;20189;-87
2023/10/17 02:48:40;;;;;;;0.70;0.70;;;;;;;;;;6154098;23;20186;-87
2023/10/17 02:51:18;;;;;;;0.80;0.80;;;;;;;;;;6154857;23;20178;-87
2023/10/17 02:53:47;;;;;;;0.60;0.60;;;;;;;;;;6154719;23;20289;-87
2023/10/17 02:56:20;;;;;;;0.70;0.70;;;;;;;;;;6153690;23;20189;-87
2023/10/17 02:58:50;;;;;;;0.70;0.70;;;;;;;;;;6153971;23;20249;-87
2023/10/17 03:01:19;;;;;;;0.70;0.70;;;;;;;;;;6154220;23;20180;-87
2023/10/17 03:03:50;;;;;;;0.70;0.70;;;;;;;;;;6154211;23;20174;-88
2023/10/17 03:06:19;;;;;;;0.70;0.70;;;;;;;;;;6154234;23;20175;-86
2023/10/17 03:08:51;;;;;;;0.60;0.60;;;;;;;;;;6153909;23;20185;-87
2023/10/17 03:11:35;;;;;;;0.60;0.60;;;;;;;;;;6153946;23;20178;-87
2023/10/17 03:14:12;;;;;;;2.03;1.93;;;;;;;;;;6154446;23;20181;-88
2023/10/17 03:16:40;;;;;;;0.70;0.70;;;;;;;;;;6153797;23;20196;-87
2023/10/17 03:19:12;;;;;;;0.60;0.60;;;;;;;;;;6153692;23;20206;-85
2023/10/17 03:21:43;;;;;;;0.90;0.90;;;;;;;;;;6153504;23;20180;-87
2023/10/17 03:24:13;;;;;;;1.00;1.00;;;;;;;;;;6153598;23;20386;-87
2023/10/17 03:26:54;;;;;;;0.90;0.90;;;;;;;;;;6153497;23;20244;-87
2023/10/17 03:29:24;;;;;;;0.70;0.70;;;;;;;;;;6153899;23;20225;-87
2023/10/17 03:31:58;;;;;;;0.70;0.70;;;;;;;;;;6156275;23;20175;-87
2023/10/17 03:34:34;;;;;;;1.00;1.00;;;;;;;;;;6155642;23;20174;-87
2023/10/17 03:37:26;;;;;;;0.70;0.70;;;;;;;;;;6155556;23;20192;-87
2023/10/17 03:39:56;;;;;;;0.60;0.60;;;;;;;;;;6155930;23;20280;-85
2023/10/17 03:42:44;;;;;;;0.80;0.80;;;;;;;;;;6155912;23;20177;-87
2023/10/17 03:45:16;;;;;;;0.70;0.70;;;;;;;;;;6155451;23;20205;-87
2023/10/17 03:47:47;;;;;;;0.60;0.60;;;;;;;;;;6155981;23;20174;-87
2023/10/17 03:53:06;;;;;;;0.80;0.80;;;;;;;;;;6154788;23;20225;-87
2023/10/17 03:55:36;;;;;;;0.70;0.70;;;;;;;;;;6155341;23;20229;-87
2023/10/17 03:58:18;;;;;;;0.80;0.80;;;;;;;;;;6155511;23;20200;-87
2023/10/17 04:00:47;;;;;;;0.70;0.70;;;;;;;;;;6155892;23;20206;-87
2023/10/17 04:03:21;;;;;;;15.60;2.20;;;;;;;;;;6155449;23;20188;-87
2023/10/17 04:05:51;;;;;;;0.97;0.97;;;;;;;;;;6154898;23;20173;-87
2023/10/17 04:08:30;;;;;;;0.70;0.70;;;;;;;;;;6155955;23;20179;-87
2023/10/17 04:11:17;;;;;;;0.60;0.60;;;;;;;;;;6155762;23;20209;-87
2023/10/17 04:13:49;;;;;;;0.70;0.70;;;;;;;;;;6154359;23;20173;-87
2023/10/17 04:16:21;;;;;;;0.70;0.70;;;;;;;;;;6154940;23;20227;-86
2023/10/17 04:18:57;;;;;;;1.07;1.07;;;;;;;;;;6155264;23;20279;-87
2023/10/17 04:21:30;;;;;;;0.70;0.70;;;;;;;;;;6155098;23;20173;-87
2023/10/17 04:24:01;;;;;;;0.70;0.70;;;;;;;;;;6154380;23;20188;-86
2023/10/17 04:26:34;;;;;;;2.33;2.13;;;;;;;;;;6154960;23;20176;-86
2023/10/17 04:29:12;;;;;;;0.97;0.97;;;;;;;;;;6155459;23;20184;-87
2023/10/17 04:31:43;;;;;;;1.30;1.30;;;;;;;;;;6154882;23;20228;-86
2023/10/17 04:34:18;;;;;;;0.80;0.80;;;;;;;;;;6154690;23;20183;-86
2023/10/17 04:36:46;;;;;;;1.43;1.43;;;;;;;;;;6155324;23;20176;-86
2023/10/17 04:39:19;;;;;;;1.10;1.10;;;;;;;;;;6154936;23;20209;-86
2023/10/17 04:45:05;;;;;;;0.70;0.70;;;;;;;;;;5146189;27;20928;-85
2023/10/17 04:47:33;;;;;;;3.60;1.70;;;;;;;;;;5130636;28;20211;-85
2023/10/17 04:50:02;;;;;;;0.80;0.80;;;;;;;;;;5130225;28;20223;-84
2023/10/17 04:52:30;;;;;;;0.70;0.70;;;;;;;;;;5129766;28;20197;-86
2023/10/17 04:55:17;;;;;;;0.80;0.80;;;;;;;;;;5129645;28;20209;-86
2023/10/17 04:57:56;;;;;;;1.53;1.53;;;;;;;;;;5130035;28;20200;-85
2023/10/17 05:00:43;;;;;;;3.13;2.83;;;;;;;;;;5130080;28;20231;-85
2023/10/17 05:03:14;;;;;;;0.90;0.90;;;;;;;;;;5129157;28;20208;-85
2023/10/17 05:06:00;;;;;;;1.30;1.30;;;;;;;;;;5130126;28;20200;-85
2023/10/17 05:08:32;;;;;;;1.10;1.10;;;;;;;;;;5129883;28;20196;-85
2023/10/17 06:18:07;;;;;;;0.70;0.70;;;;;;;;;;5114388;28;20204;-86
2023/10/17 06:21:06;;;;;;;0.70;0.70;;;;;;;;;;5114887;28;20199;-86
2023/10/17 06:26:47;;;;;;;0.70;0.70;;;;;;;;;;5114995;28;20196;-88
2023/10/17 06:32:16;;;;;;;0.80;0.80;;;;;;;;;;5115448;28;20197;-88
2023/10/17 06:34:45;;;;;;;0.97;0.97;;;;;;;;;;5115190;28;20194;-86
2023/10/17 06:37:19;;;;;;;0.70;0.70;;;;;;;;;;5115634;28;20207;-89
2023/10/17 06:39:49;;;;;;;0.80;0.80;;;;;;;;;;5114885;28;20225;-88
2023/10/17 06:42:18;;;;;;;0.77;0.77;;;;;;;;;;5116291;28;20242;-88
2023/10/17 06:44:54;;;;;;;0.90;0.90;;;;;;;;;;5115293;28;20232;-88
2023/10/17 06:47:30;;;;;;;2.67;1.47;;;;;;;;;;5115870;28;20203;-88
2023/10/17 06:50:34;;;;;;;0.73;0.73;;;;;;;;;;5116193;28;20462;-89
2023/10/17 06:53:02;;;;;;;1.50;1.40;;;;;;;;;;5116737;28;20197;-90
2023/10/17 06:55:38;;;;;;;1.27;1.27;;;;;;;;;;5115531;28;20295;-87
2023/10/17 06:58:10;;;;;;;1.07;1.07;;;;;;;;;;5116020;28;20204;-88
2023/10/17 07:00:53;;;;;;;2.07;1.30;;;;;;;;;;5115920;28;20505;-88
2023/10/17 07:03:26;;;;;;;3.33;3.17;;;;;;;;;;5115245;28;20301;-87
2023/10/17 07:06:04;;;;;;;1.60;1.50;;;;;;;;;;5113748;28;20209;-87
2023/10/17 07:08:37;;;;;;;2.93;1.87;;;;;;;;;;5114773;28;20214;-87
2023/10/17 07:11:09;;;;;;;6.33;2.50;;;;;;;;;;5114510;28;20205;-87
2023/10/17 07:13:50;;;;;;;2.53;2.33;;;;;;;;;;5114109;28;20208;-87
2023/10/17 07:16:27;;;;;;;1.43;1.37;;;;;;;;;;5113808;28;20205;-87
2023/10/17 07:19:09;;;;;;;2.17;2.03;;;;;;;;;;5114759;28;20217;-87
2023/10/17 07:21:55;;;;;;;4.57;2.43;;;;;;;;;;5114689;28;20296;-87
2023/10/17 07:24:24;;;;;;;6.57;2.93;;;;;;;;;;5113880;28;20225;-88
2023/10/17 07:26:55;;;;;;;6.20;3.53;;;;;;;;;;5114209;28;20197;-87
2023/10/17 07:29:24;;;;;;;2.97;2.20;;;;;;;;;;5114319;28;20217;-87
2023/10/17 07:31:54;;;;;;;3.10;2.53;;;;;;;;;;5114510;28;20199;-88
2023/10/17 07:34:23;;;;;;;5.53;3.30;;;;;;;;;;5114448;28;20201;-89
2023/10/17 07:36:57;;;;;;;3.73;3.17;;;;;;;;;;5113285;28;20206;-87
2023/10/17 07:39:29;;;;;;;2.17;1.97;;;;;;;;;;5114224;28;20197;-88
2023/10/17 07:42:00;;;;;;;2.00;1.90;;;;;;;;;;5113791;28;20206;-88
2023/10/17 07:44:34;;;;;;;0.60;0.60;;;;;;;;;;5112987;28;20245;-88
2023/10/17 07:47:09;;;;;;;2.93;2.30;;;;;;;;;;5113500;28;20271;-89
2023/10/17 07:49:38;;;;;;;0.77;0.77;;;;;;;;;;5113635;28;20202;-85
2023/10/17 07:52:13;;;;;;;1.77;1.67;;;;;;;;;;5113118;28;20214;-86
2023/10/17 07:54:46;;;;;;;1.43;1.33;;;;;;;;;;5112828;28;20266;-87
2023/10/17 07:57:19;;;;;;;3.10;2.20;;;;;;;;;;5113040;28;20205;-85
2023/10/17 07:59:51;;;;;;;1.97;1.87;;;;;;;;;;5113544;28;20330;-86
2023/10/17 08:02:20;;;;;;;2.30;2.20;;;;;;;;;;5113807;28;20270;-87
2023/10/17 08:04:50;;;;;;;2.97;2.57;;;;;;;;;;5112378;28;20233;-84
2023/10/17 08:07:20;;;;;;;6.50;2.87;;;;;;;;;;5112415;28;20212;-88
2023/10/17 08:09:56;;;;;;;4.80;3.17;;;;;;;;;;5113562;28;20206;-87
2023/10/17 08:12:29;;;;;;;5.00;2.93;;;;;;;;;;5112859;28;20232;-87
2023/10/17 08:15:18;;;;;;;4.43;2.47;;;;;;;;;;5112597;28;20252;-87
2023/10/17 08:17:48;;;;;;;3.33;2.00;;;;;;;;;;5112715;28;20237;-86
2023/10/17 08:23:10;;;;;;;4.17;2.80;;;;;;;;;;5112997;28;20205;-86
2023/10/17 08:25:52;;;;;;;3.40;2.20;;;;;;;;;;5112401;28;20221;-87
2023/10/17 08:28:31;;;;;;;2.47;2.03;;;;;;;;;;5113192;28;20205;-88
2023/10/17 08:31:17;;;;;;;3.20;2.23;;;;;;;;;;5113543;28;20257;-87
2023/10/17 08:33:52;;;;;;;4.47;1.30;;;;;;;;;;5112586;28;20295;-87
2023/10/17 08:36:23;;;;;;;2.10;1.87;;;;;;;;;;5113110;28;20203;-87
2023/10/17 08:38:54;;;;;;;3.87;1.87;;;;;;;;;;5113242;28;20267;-86
2023/10/17 08:41:26;;;;;;;0.80;0.80;;;;;;;;;;5112977;28;20263;-87
2023/10/17 08:43:57;;;;;;;1.43;1.33;;;;;;;;;;5112228;28;20232;-88
2023/10/17 08:46:25;;;;;;;4.87;2.87;;;;;;;;;;5113473;28;20196;-87
2023/10/17 08:48:56;;;;;;;3.67;3.07;;;;;;;;;;5112563;28;20202;-88
2023/10/17 08:51:26;;;;;;;1.17;1.13;;;;;;;;;;5112437;28;20206;-87
2023/10/17 08:53:57;;;;;;;10.03;2.83;;;;;;;;;;5112219;28;20206;-87
2023/10/17 08:56:29;;;;;;;1.67;1.57;;;;;;;;;;5113488;28;20191;-87
2023/10/17 08:59:04;;;;;;;3.37;3.07;;;;;;;;;;5113071;28;20303;-89
2023/10/17 09:01:33;;;;;;;7.67;2.87;;;;;;;;;;5112788;28;20194;-90
2023/10/17 09:04:03;;;;;;;4.20;2.70;;;;;;;;;;5112919;28;20258;-90
2023/10/17 09:06:37;;;;;;;6.00;2.83;;;;;;;;;;5113097;28;20224;-89
2023/10/17 09:09:21;;;;;;;4.13;2.80;;;;;;;;;;5114046;28;20226;-89
2023/10/17 09:12:07;;;;;;;7.77;3.07;;;;;;;;;;5112792;28;20204;-89
2023/10/17 09:14:44;;;;;;;3.03;2.73;;;;;;;;;;5113625;28;20228;-89
2023/10/17 09:17:16;;;;;;;2.10;1.77;;;;;;;;;;5113342;28;20235;-89
2023/10/17 09:19:52;;;;;;;3.00;2.70;;;;;;;;;;5113477;28;20235;-88
2023/10/17 09:22:36;;;;;;;2.33;1.97;;;;;;;;;;5112633;28;20207;-91
2023/10/17 09:25:19;;;;;;;1.53;1.43;;;;;;;;;;5113161;28;20277;-88
2023/10/17 09:27:51;;;;;;;1.87;1.40;;;;;;;;;;5112684;28;20192;-88
2023/10/17 09:30:26;;;;;;;2.20;1.37;;;;;;;;;;5109594;28;20216;-89
2023/10/17 09:32:55;;;;;;;2.43;1.53;;;;;;;;;;5098777;28;20861;-89
2023/10/17 09:35:24;;;;;;;2.03;1.40;;;;;;;;;;5104440;28;20203;-89
2023/10/17 09:38:02;;;;;;;1.23;1.17;;;;;;;;;;5103815;28;20211;-89
2023/10/17 09:40:31;;;;;;;1.70;1.60;;;;;;;;;;5097413;28;20312;-88
2023/10/17 09:43:00;;;;;;;2.97;1.23;;;;;;;;;;5105169;28;20239;-88
2023/10/17 09:45:33;;;;;;;1.57;1.33;;;;;;;;;;5104366;28;20221;-88
2023/10/17 09:48:05;;;;;;;2.13;1.53;;;;;;;;;;5101409;28;20196;-88
2023/10/17 09:50:38;;;;;;;2.80;1.73;;;;;;;;;;5103381;28;20208;-88
2023/10/17 09:53:13;;;;;;;1.83;1.73;;;;;;;;;;5100798;28;20212;-88
2023/10/17 09:55:46;;;;;;;0.80;0.80;;;;;;;;;;5112478;28;20212;-88
2023/10/17 09:58:17;;;;;;;2.07;1.30;;;;;;;;;;5112383;28;20200;-88
2023/10/17 10:00:51;;;;;;;3.93;1.40;;;;;;;;;;5103767;28;20228;-87
2023/10/17 10:03:21;;;;;;;1.40;1.30;;;;;;;;;;5098724;28;20196;-87
2023/10/17 10:05:54;;;;;;;1.50;1.40;;;;;;;;;;5097157;28;20220;-87
2023/10/17 10:08:32;;;;;;;1.60;1.03;;;;;;;;;;5093348;28;20231;-87
2023/10/17 10:11:01;;;;;;;2.83;1.50;;;;;;;;;;5097078;28;20201;-87
2023/10/17 10:13:31;;;;;;;3.73;1.37;;;;;;;;;;5101306;28;20250;-87
2023/10/17 10:16:04;;;;;;;4.73;1.40;;;;;;;;;;5099858;28;20469;-87
2023/10/17 10:18:51;;;;;;;1.53;1.10;;;;;;;;;;5096908;28;20224;-87
2023/10/17 10:21:22;;;;;;;5.50;1.53;;;;;;;;;;5103611;28;20211;-87
2023/10/17 10:23:52;;;;;;;3.83;1.47;;;;;;;;;;5105444;28;20197;-87
2023/10/17 10:26:22;;;;;;;2.03;1.00;;;;;;;;;;5098249;28;20245;-87
2023/10/17 10:28:51;;;;;;;2.83;1.20;;;;;;;;;;5103783;28;20200;-87
2023/10/17 10:31:38;;;;;;;1.87;1.40;;;;;;;;;;5105216;28;20320;-88
2023/10/17 10:34:08;;;;;;;1.10;1.10;;;;;;;;;;5105033;28;20253;-89
2023/10/17 10:36:37;;;;;;;1.33;1.00;;;;;;;;;;5103330;28;20254;-87
2023/10/17 10:39:12;;;;;;;6.43;1.83;;;;;;;;;;5101707;28;20207;-87
2023/10/17 10:41:56;;;;;;;0.97;0.70;;;;;;;;;;5099716;28;20201;-87
2023/10/17 10:44:26;;;;;;;6.23;1.20;;;;;;;;;;5104222;28;20232;-88
2023/10/17 10:46:57;;;;;;;1.40;0.90;;;;;;;;;;5102689;28;20245;-88
2023/10/17 10:49:28;;;;;;;1.43;1.03;;;;;;;;;;5104392;28;20202;-88
2023/10/17 10:51:58;;;;;;;1.73;0.90;;;;;;;;;;5102188;28;20197;-88
2023/10/17 10:54:48;;;;;;;1.20;1.10;;;;;;;;;;5100141;28;20220;-88
2023/10/17 10:57:17;;;;;;;1.83;1.53;;;;;;;;;;5092566;28;20189;-88
2023/10/17 10:59:51;;;;;;;2.80;0.90;;;;;;;;;;5094181;28;20193;-88
2023/10/17 11:02:21;;;;;;;0.70;0.70;;;;;;;;;;5094433;28;20203;-88
2023/10/17 11:04:50;;;;;;;0.70;0.70;;;;;;;;;;5094315;28;20535;-88
2023/10/17 11:07:20;;;;;;;1.40;1.00;;;;;;;;;;5093325;28;20248;-88
2023/10/17 11:10:01;;;;;;;0.73;0.73;;;;;;;;;;5094295;28;20208;-88
2023/10/17 11:12:30;;;;;;;0.80;0.80;;;;;;;;;;5094099;28;20208;-88
2023/10/17 11:15:14;;;;;;;0.90;0.90;;;;;;;;;;5094720;28;20211;-88
2023/10/17 11:17:45;;;;;;;0.70;0.70;;;;;;;;;;5094341;28;20252;-88
2023/10/17 11:20:16;;;;;;;0.80;0.80;;;;;;;;;;5094775;28;20231;-88
2023/10/17 11:22:45;;;;;;;4.00;1.33;;;;;;;;;;5095074;28;20197;-88
2023/10/17 11:25:21;;;;;;;3.80;1.87;;;;;;;;;;5094333;28;20201;-88
2023/10/17 11:27:53;;;;;;;0.67;0.63;;;;;;;;;;5094064;28;20250;-89
2023/10/17 11:30:35;;;;;;;5.10;1.33;;;;;;;;;;5097290;28;20209;-88
2023/10/17 11:33:28;;;;;;;1.60;1.20;;;;;;;;;;5096083;28;20231;-87
2023/10/17 11:36:02;;;;;;;3.50;1.17;;;;;;;;;;5093819;28;20199;-87
2023/10/17 11:38:34;;;;;;;2.47;1.23;;;;;;;;;;5094217;28;20253;-87
2023/10/17 11:41:17;;;;;;;0.77;0.77;;;;;;;;;;5092215;28;20216;-87
2023/10/17 11:43:53;;;;;;;2.00;1.07;;;;;;;;;;5097260;27;20248;-87
2023/10/17 11:46:29;;;;;;;3.00;1.07;;;;;;;;;;5103773;28;20242;-87
2023/10/17 11:49:20;;;;;;;1.90;1.10;;;;;;;;;;5091493;28;20312;-87
2023/10/17 11:51:58;;;;;;;2.63;1.73;;;;;;;;;;5090888;28;20281;-87
2023/10/17 11:54:27;;;;;;;1.77;1.60;;;;;;;;;;5089927;28;20200;-86
2023/10/17 11:57:11;;;;;;;1.37;1.00;;;;;;;;;;5104142;28;20189;-88
2023/10/17 11:59:39;;;;;;;1.60;1.50;;;;;;;;;;5097142;28;20193;-86
2023/10/17 12:02:11;;;;;;;2.33;1.80;;;;;;;;;;5091393;28;20204;-88
2023/10/17 12:04:40;;;;;;;3.20;1.30;;;;;;;;;;5096407;28;20235;-88
2023/10/17 12:07:11;;;;;;;1.83;1.67;;;;;;;;;;5098757;28;20208;-88
2023/10/17 12:09:39;;;;;;;1.43;1.33;;;;;;;;;;5096383;28;20266;-88
2023/10/17 12:12:08;;;;;;;1.20;0.90;;;;;;;;;;5092424;28;20260;-87
2023/10/17 12:14:37;;;;;;;1.43;1.20;;;;;;;;;;5097359;28;20214;-89
2023/10/17 12:17:08;;;;;;;3.93;1.23;;;;;;;;;;5093878;28;20215;-88
2023/10/17 12:19:41;;;;;;;1.13;0.83;;;;;;;;;;5094031;28;20280;-88
2023/10/17 12:22:11;;;;;;;0.80;0.80;;;;;;;;;;5098438;28;20244;-87
2023/10/17 12:24:39;;;;;;;4.70;1.47;;;;;;;;;;5102444;28;20209;-88
2023/10/17 12:27:13;;;;;;;1.40;1.30;;;;;;;;;;5103547;28;20224;-88
2023/10/17 12:29:44;;;;;;;0.80;0.80;;;;;;;;;;5109779;28;20216;-88
2023/10/17 12:32:17;;;;;;;0.80;0.80;;;;;;;;;;5097969;28;20205;-87
2023/10/17 12:34:46;;;;;;;1.27;0.77;;;;;;;;;;5103766;28;20336;-88
2023/10/17 12:37:17;;;;;;;3.23;1.07;;;;;;;;;;5089467;28;20231;-88
2023/10/17 12:39:47;;;;;;;3.10;0.90;;;;;;;;;;5097569;28;20213;-88
2023/10/17 12:42:16;;;;;;;0.77;0.77;;;;;;;;;;5101334;28;20226;-88
2023/10/17 12:44:45;;;;;;;0.80;0.80;;;;;;;;;;5102924;28;20290;-89
2023/10/17 12:47:16;;;;;;;8.63;1.10;;;;;;;;;;5106924;28;20223;-89
2023/10/17 12:49:45;;;;;;;1.30;1.20;;;;;;;;;;5090863;28;20205;-88
2023/10/17 12:52:13;;;;;;;1.00;1.00;;;;;;;;;;5103575;28;20200;-88
2023/10/17 12:54:44;;;;;;;1.23;1.00;;;;;;;;;;5101209;28;20300;-88
2023/10/17 12:57:14;;;;;;;1.63;1.23;;;;;;;;;;5104031;28;20257;-85
2023/10/17 12:59:42;;;;;;;1.70;1.13;;;;;;;;;;5100190;28;20211;-89
2023/10/17 13:02:12;;;;;;;1.10;0.70;;;;;;;;;;5105055;28;20204;-89
2023/10/17 13:04:41;;;;;;;0.80;0.80;;;;;;;;;;5102954;28;20202;-88
2023/10/17 13:07:13;;;;;;;1.50;1.23;;;;;;;;;;5098672;28;20270;-89
2023/10/17 13:09:42;;;;;;;1.40;1.20;;;;;;;;;;5108623;28;20250;-90
2023/10/17 13:12:13;;;;;;;3.07;1.20;;;;;;;;;;5094645;28;20213;-84
2023/10/17 13:14:43;;;;;;;1.33;1.23;;;;;;;;;;5107781;28;20213;-87
2023/10/17 13:17:12;;;;;;;0.90;0.90;;;;;;;;;;5093734;28;20213;-88
2023/10/17 13:19:43;;;;;;;1.27;1.10;;;;;;;;;;5103235;28;20231;-88
2023/10/17 13:22:17;;;;;;;3.87;1.47;;;;;;;;;;5101271;28;20210;-88
2023/10/17 13:24:47;;;;;;;1.20;0.90;;;;;;;;;;5099832;28;20223;-88
2023/10/17 13:27:18;;;;;;;2.77;1.97;;;;;;;;;;5100887;28;20216;-88
2023/10/17 13:29:50;;;;;;;2.80;2.20;;;;;;;;;;5101859;28;20240;-88
2023/10/17 13:32:19;;;;;;;1.90;1.07;;;;;;;;;;5100117;28;20266;-88
2023/10/17 13:34:47;;;;;;;1.03;1.03;;;;;;;;;;5106460;28;20221;-88
2023/10/17 13:37:16;;;;;;;2.50;1.27;;;;;;;;;;5093397;28;20239;-89
2023/10/17 13:39:45;;;;;;;1.27;1.10;;;;;;;;;;5099231;28;20666;-87
2023/10/17 13:42:15;;;;;;;1.43;0.90;;;;;;;;;;5098097;28;20308;-88
2023/10/17 13:44:46;;;;;;;0.93;0.93;;;;;;;;;;5103989;28;20237;-88
2023/10/17 13:47:16;;;;;;;2.00;1.13;;;;;;;;;;5107677;28;20229;-88
2023/10/17 13:49:44;;;;;;;1.47;1.30;;;;;;;;;;5103917;28;20196;-88
2023/10/17 13:52:17;;;;;;;1.33;1.20;;;;;;;;;;5098635;28;20225;-88
2023/10/17 13:54:46;;;;;;;1.20;1.10;;;;;;;;;;5113855;28;20200;-89
2023/10/17 13:57:16;;;;;;;2.30;1.43;;;;;;;;;;5095907;28;20209;-88
2023/10/17 13:59:56;;;;;;;2.20;1.43;;;;;;;;;;5098584;28;20208;-88
2023/10/17 14:02:25;;;;;;;3.07;1.33;;;;;;;;;;5107023;27;20223;-88
2023/10/17 14:05:01;;;;;;;1.37;1.27;;;;;;;;;;5094025;28;20287;-89
2023/10/17 14:07:48;;;;;;;1.13;0.83;;;;;;;;;;5104606;28;20220;-89
2023/10/17 14:10:27;;;;;;;4.37;1.10;;;;;;;;;;5099104;28;20209;-89
2023/10/17 14:12:57;;;;;;;3.27;2.90;;;;;;;;;;5096770;28;20213;-89
2023/10/17 14:15:28;;;;;;;0.70;0.70;;;;;;;;;;5095118;28;20216;-89
2023/10/17 14:18:01;;;;;;;0.87;0.83;;;;;;;;;;5096114;28;20262;-89
2023/10/17 14:20:38;;;;;;;1.63;1.30;;;;;;;;;;5113532;28;20234;-89
2023/10/17 14:23:11;;;;;;;0.70;0.70;;;;;;;;;;5107546;28;20204;-90
2023/10/17 14:28:29;;;;;;;0.80;0.80;;;;;;;;;;5094120;28;20280;-89
2023/10/17 14:30:58;;;;;;;1.40;1.10;;;;;;;;;;5093974;28;20236;-89
2023/10/17 14:33:47;;;;;;;1.00;1.00;;;;;;;;;;5102312;28;20205;-89
2023/10/17 14:36:18;;;;;;;2.37;1.30;;;;;;;;;;5093069;28;20299;-90
2023/10/17 14:38:50;;;;;;;0.93;0.93;;;;;;;;;;5100209;28;20205;-90
2023/10/17 14:41:22;;;;;;;1.07;1.03;;;;;;;;;;5106985;28;20204;-89
2023/10/17 14:43:51;;;;;;;0.97;0.90;;;;;;;;;;5096281;28;20241;-89
2023/10/17 14:46:24;;;;;;;0.83;0.83;;;;;;;;;;5092521;28;20200;-89
2023/10/17 14:49:11;;;;;;;1.67;1.03;;;;;;;;;;5099160;28;20263;-89
2023/10/17 14:51:43;;;;;;;1.33;1.27;;;;;;;;;;5106358;28;20273;-89
2023/10/17 14:54:13;;;;;;;0.83;0.83;;;;;;;;;;5102788;28;20224;-89
2023/10/17 14:56:42;;;;;;;0.60;0.60;;;;;;;;;;5098724;28;20213;-89
2023/10/17 14:59:13;;;;;;;2.73;0.87;;;;;;;;;;5103229;28;20212;-89
2023/10/17 15:01:43;;;;;;;0.90;0.90;;;;;;;;;;5096127;28;20239;-89
2023/10/17 15:04:14;;;;;;;1.00;0.97;;;;;;;;;;5102398;28;20240;-89
2023/10/17 15:06:43;;;;;;;11.23;1.50;;;;;;;;;;5098529;28;20232;-90
2023/10/17 15:09:15;;;;;;;1.70;1.20;;;;;;;;;;5099325;28;20202;-90
2023/10/17 15:11:43;;;;;;;0.80;0.80;;;;;;;;;;5094543;28;20201;-90
2023/10/17 15:14:27;;;;;;;0.90;0.90;;;;;;;;;;5096010;28;20217;-90
2023/10/17 15:17:04;;;;;;;0.63;0.63;;;;;;;;;;5091750;28;20215;-91
2023/10/17 15:19:43;;;;;;;2.23;0.87;;;;;;;;;;5098489;28;20210;-90
2023/10/17 15:22:12;;;;;;;1.97;1.20;;;;;;;;;;5098929;28;20208;-90
2023/10/17 15:24:41;;;;;;;0.90;0.70;;;;;;;;;;5092889;28;20208;-90
2023/10/17 15:27:21;;;;;;;0.77;0.77;;;;;;;;;;5097337;28;20208;-90
2023/10/17 15:29:51;;;;;;;3.00;1.37;;;;;;;;;;5101888;28;20220;-90
2023/10/17 15:32:27;;;;;;;1.30;1.13;;;;;;;;;;5102603;28;20203;-89
2023/10/17 15:34:56;;;;;;;1.37;1.27;;;;;;;;;;5099905;28;20216;-89
2023/10/17 15:37:29;;;;;;;0.70;0.70;;;;;;;;;;5108359;28;20211;-90
2023/10/17 15:40:02;;;;;;;0.77;0.77;;;;;;;;;;5098825;28;20204;-90
2023/10/17 15:42:31;;;;;;;0.50;0.50;;;;;;;;;;5094444;28;20199;-89
2023/10/17 15:45:05;;;;;;;0.87;0.87;;;;;;;;;;5093431;28;20232;-90
2023/10/17 15:47:35;;;;;;;1.53;1.30;;;;;;;;;;5093418;28;20232;-91
2023/10/17 15:50:04;;;;;;;1.20;1.03;;;;;;;;;;5093672;28;20224;-90
2023/10/17 15:52:33;;;;;;;1.07;1.07;;;;;;;;;;5094102;28;20278;-90
2023/10/17 15:55:02;;;;;;;2.77;1.63;;;;;;;;;;5093447;28;20463;-91
2023/10/17 15:57:31;;;;;;;0.63;0.63;;;;;;;;;;5093107;28;20463;-90
2023/10/17 15:59:59;;;;;;;2.00;1.00;;;;;;;;;;5093447;28;20189;-91
2023/10/17 16:02:28;;;;;;;1.20;1.10;;;;;;;;;;5092923;28;20274;-90
2023/10/17 16:04:58;;;;;;;0.77;0.77;;;;;;;;;;5092046;28;20197;-89
2023/10/17 16:07:28;;;;;;;0.73;0.73;;;;;;;;;;5092628;28;20224;-89
2023/10/17 16:09:57;;;;;;;1.30;1.20;;;;;;;;;;5093382;28;20209;-90
2023/10/17 16:12:26;;;;;;;2.63;1.70;;;;;;;;;;5093823;28;20273;-90
2023/10/17 16:14:55;;;;;;;0.50;0.50;;;;;;;;;;5093169;28;20186;-90
2023/10/17 16:17:24;;;;;;;10.60;9.73;;;;;;;;;;5093535;28;20193;-90
2023/10/17 16:19:53;;;;;;;0.83;0.83;;;;;;;;;;5093254;28;20239;-90
2023/10/17 16:22:23;;;;;;;0.80;0.80;;;;;;;;;;5093997;28;20265;-90
2023/10/17 16:24:52;;;;;;;4.90;1.00;;;;;;;;;;5092575;28;20225;-90
2023/10/17 16:27:48;;;;;;;;;;;;;;;;;;;;;
2023/10/17 16:31:13;;;;;;;0.70;0.70;;;;;;;;;;5030228;28;20293;-91
2023/10/17 16:34:38;;;;;;;;;;;;;;;;;;;;;
2023/10/17 16:40:55;;;;;;;0.60;0.60;;;;;;;;;;4934427;28;20201;-92
2023/10/17 16:50:22;;;;;;;;;;;;;;;;;;;;;
2023/10/17 16:53:38;;;;;;;1.07;1.03;;;;;;;;;;4895404;29;20219;-91
2023/10/17 16:59:53;;;;;;;;;;;;;;;;;;;;;
2023/10/17 17:03:01;;;;;;;;;;;;;;;;;;;;;
2023/10/17 17:06:16;;;;;;;;;;;;;;;;;;;;;
2023/10/17 17:09:29;;;;;;;;;;;;;;;;;;;;;